Main page
METAR-TAF:

METAR-TAF

Airports :

Sukkur Airport

Sukkur, Pakistan

latitude: 27-43-19N, longitude: 068-47-31E, elevation: 60 m

Current weather observation

The report was made 1 hour and 19 minutes ago, at 21:00 UTC
Calm wind
Temperature 27°C
Humidity 48%
Pressure 1004 hPa
Visibility: 4000 m
Scattered clouds at a height of 20000 ft
haze,

METAR: OPSK 242100Z 00000KT 4000 HZ SCT200 27/15 Q1004 NOSIG

Time: 03:19 (22:19 UTC)

Forecast

The report was made 5 hours and 19 minutes ago, at 17:00 UTC
Forecast valid from 24 at 18 UTC to 25 at 18 UTC
Wind 5 kt from the Southeast
Visibility: 3000 m
haze
From 25 at 0400 UTC
Wind 10 kt from the South/Southeast
Visibility: 4000 m
Scattered clouds at a height of 10000 ft
haze,

TAF: OPSK 241700Z 2418/2518 14005KT 3000 HZ NSC FM250400 16010KT 4000 HZ SCT100

Weather observations and forecasts of more than 4000 airports (METAR and TAF reports).

The available stations are represented by yellow and red dots on the map.

Hover mouse over dot to see the name of the station.

Then click to see weather observations and forecasts.

To change the map : click on the green buttons with a black cross to zoom in, on the green button with a dash to zoom out, or on the green arrows for adjacent maps.


METAR-TAF: